Time;durP1;ratioP1;P1;durP2;ratioP2;P2;SDS_P1;SDS_P2;PMS_P1;PMS_P2;Temp;Humidity;BMP_temperature;BMP_pressure;BME280_temperature;BME280_humidity;BME280_pressure;Samples;Min_cycle;Max_cycle;Signal;HPM_P1;HPM_P2
2023/05/16 00:01:11;;;;;;;12.23;6.83;;;;;;;11.78;70.27;95837.69;4989498;28;20172;-68
2023/05/16 00:03:37;;;;;;;12.00;6.93;;;;;;;11.79;70.56;95839.41;4989377;28;20287;-68
2023/05/16 00:06:04;;;;;;;9.00;6.40;;;;;;;11.61;70.92;95841.28;4989310;28;20412;-68
2023/05/16 00:08:29;;;;;;;9.13;6.60;;;;;;;11.54;71.79;95843.41;4989387;28;20421;-68
2023/05/16 00:10:55;;;;;;;11.70;7.30;;;;;;;11.71;70.90;95842.44;4989581;28;20404;-69
2023/05/16 00:13:23;;;;;;;7.20;6.50;;;;;;;11.60;71.22;95835.19;4989190;28;20211;-69
2023/05/16 00:15:50;;;;;;;7.33;6.17;;;;;;;11.71;70.88;95841.59;4989224;28;20638;-68
2023/05/16 00:18:16;;;;;;;7.20;6.43;;;;;;;11.64;71.62;95834.06;4989051;28;20459;-68
2023/05/16 00:20:42;;;;;;;6.70;6.10;;;;;;;11.69;70.88;95825.91;4989404;28;21327;-68
2023/05/16 00:23:07;;;;;;;9.47;6.60;;;;;;;11.65;71.68;95830.53;4989189;28;20455;-69
2023/05/16 00:25:33;;;;;;;7.80;6.80;;;;;;;11.60;71.40;95832.56;4989233;28;20630;-68
2023/05/16 00:27:58;;;;;;;8.03;7.20;;;;;;;11.67;71.47;95835.69;4989044;28;20698;-68
2023/05/16 00:30:23;;;;;;;11.13;8.53;;;;;;;11.69;70.71;95832.97;4987702;28;20181;-68
2023/05/16 00:32:49;;;;;;;8.90;8.00;;;;;;;11.79;70.67;95839.41;4989070;28;20742;-69
2023/05/16 00:35:14;;;;;;;7.37;6.67;;;;;;;11.61;72.04;95834.25;4989174;28;20177;-69
2023/05/16 00:37:40;;;;;;;8.60;6.97;;;;;;;11.44;71.97;95843.09;4988617;28;20728;-69
2023/05/16 00:40:06;;;;;;;9.57;7.10;;;;;;;11.38;72.28;95845.22;4988966;28;20319;-69
2023/05/16 00:42:32;;;;;;;7.83;7.13;;;;;;;11.39;72.75;95852.19;4988696;28;20200;-68
2023/05/16 00:44:58;;;;;;;8.70;7.90;;;;;;;11.28;73.22;95844.88;4988988;28;20423;-68
2023/05/16 00:47:23;;;;;;;7.63;6.93;;;;;;;11.12;73.80;95839.63;4988279;28;20203;-68
2023/05/16 00:49:49;;;;;;;10.17;8.13;;;;;;;11.19;73.25;95838.34;4988782;28;20177;-68
2023/05/16 00:52:14;;;;;;;9.93;7.90;;;;;;;11.13;73.74;95841.31;4988683;28;20246;-69
2023/05/16 00:54:40;;;;;;;7.53;6.80;;;;;;;11.19;73.14;95833.09;4988788;28;20173;-68
2023/05/16 00:57:06;;;;;;;8.43;7.00;;;;;;;11.02;73.52;95826.16;4988585;28;20268;-68
2023/05/16 00:59:32;;;;;;;8.13;7.30;;;;;;;11.09;73.59;95829.28;4988636;28;20296;-69
2023/05/16 01:01:57;;;;;;;9.43;7.83;;;;;;;11.10;73.56;95835.38;4988737;28;20432;-69
2023/05/16 01:04:23;;;;;;;8.73;7.27;;;;;;;11.07;73.86;95836.41;4988866;28;20440;-68
2023/05/16 01:06:49;;;;;;;7.37;6.67;;;;;;;11.02;73.61;95841.91;4988574;28;20701;-68
2023/05/16 01:09:14;;;;;;;6.67;5.97;;;;;;;11.06;74.09;95834.72;4988711;28;20192;-69
2023/05/16 01:11:55;;;;;;;9.53;6.50;;;;;;;11.14;73.37;95836.91;4988495;28;20207;-69
2023/05/16 01:14:23;;;;;;;10.80;7.70;;;;;;;11.12;73.56;95829.13;4988528;28;20658;-68
2023/05/16 01:16:55;;;;;;;8.87;7.97;;;;;;;11.26;72.88;95828.34;4988197;28;20412;-69
2023/05/16 01:19:57;;;;;;;8.37;7.37;;;;;;;11.30;72.81;95827.25;4988322;28;20459;-69
2023/05/16 01:22:54;;;;;;;7.73;7.00;;;;;;;11.30;72.42;95821.16;4988359;28;20963;-69
2023/05/16 01:25:38;;;;;;;13.73;9.13;;;;;;;11.34;72.37;95815.66;4988933;28;20412;-68
2023/05/16 01:28:05;;;;;;;8.90;8.10;;;;;;;11.30;72.23;95821.16;4992255;28;20897;-68
2023/05/16 01:30:36;;;;;;;7.77;7.07;;;;;;;11.31;72.17;95812.34;4992545;28;20422;-69
2023/05/16 01:33:01;;;;;;;12.70;7.73;;;;;;;11.30;72.72;95815.91;4992264;28;20441;-67
2023/05/16 01:35:27;;;;;;;7.90;7.23;;;;;;;11.26;72.35;95825.72;4992483;28;20416;-68
2023/05/16 01:37:58;;;;;;;8.93;7.13;;;;;;;11.32;72.05;95817.50;4991920;28;20204;-69
2023/05/16 01:40:42;;;;;;;8.90;8.00;;;;;;;11.27;72.39;95808.19;4992112;28;20232;-70
2023/05/16 01:43:13;;;;;;;8.53;7.67;;;;;;;11.29;72.14;95819.44;4992220;28;20478;-68
2023/05/16 01:45:46;;;;;;;8.50;7.50;;;;;;;11.28;72.48;95813.34;4991992;28;20420;-70
2023/05/16 01:48:29;;;;;;;8.80;7.57;;;;;;;11.23;72.53;95816.25;4992488;28;20943;-68
2023/05/16 01:50:56;;;;;;;10.37;8.00;;;;;;;11.17;72.69;95815.72;4991794;28;20422;-69
2023/05/16 01:53:28;;;;;;;8.30;7.50;;;;;;;11.16;72.48;95814.88;4991576;28;20436;-67
2023/05/16 01:55:57;;;;;;;7.60;6.90;;;;;;;11.09;72.99;95817.94;4991729;28;20504;-68
2023/05/16 01:58:26;;;;;;;8.23;7.30;;;;;;;10.81;74.31;95822.91;4991797;28;20836;-69
2023/05/16 02:01:02;;;;;;;8.10;7.40;;;;;;;10.76;73.87;95824.94;4991740;28;20416;-69
2023/05/16 02:03:28;;;;;;;8.77;7.93;;;;;;;10.74;73.51;95824.16;4991505;28;20423;-68
2023/05/16 02:05:54;;;;;;;12.23;8.13;;;;;;;10.75;73.65;95822.41;4991474;28;20498;-67
2023/05/16 02:08:19;;;;;;;9.63;8.73;;;;;;;10.81;73.48;95815.03;4991598;28;20404;-68
2023/05/16 02:10:45;;;;;;;8.57;7.87;;;;;;;10.94;72.89;95817.03;4991741;28;20220;-69
2023/05/16 02:13:10;;;;;;;9.37;7.97;;;;;;;10.85;73.37;95823.59;4991619;28;20197;-69
2023/05/16 02:15:36;;;;;;;9.27;8.37;;;;;;;11.00;72.32;95820.13;4991272;28;20185;-69
2023/05/16 02:18:01;;;;;;;8.30;7.60;;;;;;;10.95;72.55;95814.28;4991403;28;20209;-68
2023/05/16 02:20:27;;;;;;;8.63;7.83;;;;;;;10.97;72.33;95814.22;5001788;28;20264;-69
2023/05/16 02:22:52;;;;;;;9.20;8.30;;;;;;;11.09;72.07;95812.69;5008741;28;20228;-69
2023/05/16 02:25:17;;;;;;;8.37;7.67;;;;;;;11.15;71.92;95817.59;5003427;28;20169;-69
2023/05/16 02:27:43;;;;;;;8.23;7.53;;;;;;;11.08;72.07;95810.97;4998271;28;20203;-69
2023/05/16 02:30:12;;;;;;;9.47;7.43;;;;;;;11.16;71.46;95808.78;4992198;28;20606;-68
2023/05/16 02:32:43;;;;;;;12.90;8.83;;;;;;;10.92;72.46;95806.59;4991042;28;20192;-68
2023/05/16 02:35:09;;;;;;;8.70;7.80;;;;;;;10.89;72.84;95800.66;4991100;28;21195;-68
2023/05/16 02:37:35;;;;;;;11.50;8.53;;;;;;;10.92;72.93;95800.50;4990389;28;20527;-69
2023/05/16 02:40:00;;;;;;;13.70;8.43;;;;;;;10.97;72.16;95796.69;4990819;28;20434;-68
2023/05/16 02:42:30;;;;;;;11.00;8.43;;;;;;;11.00;72.79;95803.53;4990964;28;20913;-68
2023/05/16 02:44:56;;;;;;;10.10;8.07;;;;;;;10.99;72.51;95801.84;4990788;28;20203;-67
2023/05/16 02:47:21;;;;;;;9.07;8.17;;;;;;;10.98;72.68;95797.53;4990443;28;20933;-68
2023/05/16 02:49:47;;;;;;;12.23;8.87;;;;;;;10.98;72.82;95795.78;4990860;28;20200;-68
2023/05/16 02:52:12;;;;;;;11.33;8.60;;;;;;;10.96;72.89;95787.13;4990863;28;20173;-68
2023/05/16 02:54:38;;;;;;;13.00;9.37;;;;;;;10.97;72.76;95793.22;4990878;28;20538;-69
2023/05/16 02:57:03;;;;;;;9.20;8.40;;;;;;;10.79;73.11;95793.31;4990777;28;20173;-68
2023/05/16 02:59:29;;;;;;;9.50;8.60;;;;;;;10.88;72.94;95791.09;4990852;28;20208;-69
2023/05/16 03:01:54;;;;;;;10.73;9.40;;;;;;;10.89;72.75;95793.66;4990763;28;20267;-69
2023/05/16 03:04:20;;;;;;;16.67;9.70;;;;;;;10.99;71.89;95784.31;4990874;28;20171;-68
2023/05/16 03:06:45;;;;;;;18.33;11.03;;;;;;;11.12;71.26;95792.34;4990406;28;20360;-69
2023/05/16 03:09:11;;;;;;;14.43;10.53;;;;;;;10.85;71.86;95783.41;4990859;28;20810;-69
2023/05/16 03:11:36;;;;;;;13.10;10.50;;;;;;;10.84;72.32;95792.19;4990580;28;20208;-68
2023/05/16 03:14:02;;;;;;;15.30;9.87;;;;;;;11.03;71.17;95784.97;4990558;28;20276;-69
2023/05/16 03:16:27;;;;;;;15.70;10.50;;;;;;;10.98;71.75;95784.41;4990159;28;20219;-69
2023/05/16 03:18:53;;;;;;;12.77;10.83;;;;;;;10.97;71.40;95785.34;4990396;28;20541;-69
2023/05/16 03:21:18;;;;;;;12.40;11.03;;;;;;;10.91;71.44;95788.28;5021734;28;20180;-68
2023/05/16 03:23:43;;;;;;;14.87;11.17;;;;;;;10.99;71.54;95788.72;4990230;28;20203;-69
2023/05/16 03:26:09;;;;;;;19.67;11.03;;;;;;;10.97;71.47;95785.34;4990011;28;20180;-69
2023/05/16 03:28:34;;;;;;;11.77;10.57;;;;;;;10.70;71.80;95782.44;4990265;28;20263;-68
2023/05/16 03:31:00;;;;;;;12.40;11.10;;;;;;;10.69;72.43;95778.97;4990390;28;20168;-68
2023/05/16 03:33:25;;;;;;;19.43;11.03;;;;;;;10.51;73.45;95779.94;4990143;28;20200;-69
2023/05/16 03:35:51;;;;;;;22.27;11.30;;;;;;;10.62;72.95;95776.78;4989784;28;20176;-69
2023/05/16 03:38:17;;;;;;;18.30;11.17;;;;;;;10.70;72.79;95778.06;4990156;28;20216;-69
2023/05/16 03:40:42;;;;;;;13.67;11.63;;;;;;;10.63;72.84;95784.56;4990130;28;20308;-68
2023/05/16 03:43:08;;;;;;;14.30;11.60;;;;;;;10.72;72.07;95784.03;4990215;28;20188;-68
2023/05/16 03:45:33;;;;;;;12.90;10.10;;;;;;;10.76;72.19;95793.44;4990237;28;20169;-68
2023/05/16 03:47:59;;;;;;;17.37;12.00;;;;;;;10.32;74.17;95796.69;4989414;28;20173;-68
2023/05/16 03:50:25;;;;;;;12.80;11.50;;;;;;;10.49;73.67;95792.34;4989975;28;20181;-69
2023/05/16 03:52:52;;;;;;;14.80;10.30;;;;;;;10.35;73.16;95791.28;4990125;28;20328;-69
2023/05/16 03:55:18;;;;;;;16.93;11.77;;;;;;;10.46;73.34;95798.56;4989979;28;20527;-69
2023/05/16 03:57:44;;;;;;;17.43;11.50;;;;;;;10.60;73.36;95793.41;4989464;28;20458;-68
2023/05/16 04:00:11;;;;;;;15.30;10.67;;;;;;;10.73;72.52;95796.25;4989838;28;20260;-67
2023/05/16 04:02:39;;;;;;;13.63;11.43;;;;;;;10.86;72.25;95796.41;4989624;28;20689;-68
2023/05/16 04:05:07;;;;;;;15.17;13.60;;;;;;;10.85;72.38;95802.59;4989993;28;20423;-68
2023/05/16 04:07:32;;;;;;;16.77;11.60;;;;;;;10.91;72.29;95804.03;4989522;28;20419;-68
2023/05/16 04:09:58;;;;;;;13.20;11.00;;;;;;;10.58;73.54;95805.81;4989467;28;20435;-69
2023/05/16 04:12:23;;;;;;;14.97;12.00;;;;;;;10.74;72.59;95803.19;4991282;28;20208;-68
2023/05/16 04:14:49;;;;;;;13.87;12.00;;;;;;;10.53;73.86;95810.41;4989924;28;20176;-69
2023/05/16 04:17:14;;;;;;;19.17;12.70;;;;;;;10.40;74.84;95814.63;4990202;28;20696;-70
2023/05/16 04:19:40;;;;;;;14.77;12.30;;;;;;;10.46;74.64;95818.72;4990499;28;20231;-67
2023/05/16 04:22:06;;;;;;;17.37;11.60;;;;;;;10.24;75.38;95818.97;4990584;28;20181;-68
2023/05/16 04:24:32;;;;;;;21.10;11.90;;;;;;;10.52;74.26;95823.63;4990427;28;20638;-69
2023/05/16 04:26:57;;;;;;;13.33;11.23;;;;;;;10.34;74.91;95823.66;4989460;28;20504;-67
2023/05/16 04:29:23;;;;;;;19.70;10.70;;;;;;;10.18;75.46;95828.84;4989442;28;20212;-68
2023/05/16 04:31:48;;;;;;;15.57;9.83;;;;;;;10.48;74.71;95827.34;4989691;28;20215;-66
2023/05/16 04:34:14;;;;;;;11.63;10.10;;;;;;;10.44;74.86;95831.91;4989035;28;20518;-67
2023/05/16 04:36:40;;;;;;;19.00;11.97;;;;;;;10.55;74.37;95820.84;4988964;28;20169;-68
2023/05/16 04:39:06;;;;;;;20.60;10.83;;;;;;;10.69;73.71;95826.19;4989022;28;21003;-68
2023/05/16 04:41:32;;;;;;;16.30;11.03;;;;;;;10.95;72.92;95821.31;4988940;28;20245;-68
2023/05/16 04:44:00;;;;;;;14.40;10.77;;;;;;;10.99;72.80;95822.88;4988911;28;20479;-69
2023/05/16 04:46:25;;;;;;;15.30;12.23;;;;;;;11.10;72.17;95825.75;4988756;28;20234;-69
2023/05/16 04:48:51;;;;;;;12.60;11.20;;;;;;;11.10;72.84;95822.25;4988843;28;20487;-69
2023/05/16 04:51:16;;;;;;;14.53;11.70;;;;;;;10.94;73.08;95820.50;4988804;28;20821;-69
2023/05/16 04:53:42;;;;;;;18.77;11.90;;;;;;;11.14;72.78;95821.16;4981499;28;20209;-69
2023/05/16 04:56:07;;;;;;;13.60;12.23;;;;;;;11.00;73.26;95827.16;4986226;28;20187;-69
2023/05/16 04:58:33;;;;;;;16.17;12.93;;;;;;;11.20;72.52;95826.09;4988067;28;20347;-69
2023/05/16 05:00:58;;;;;;;21.77;16.20;;;;;;;11.20;72.75;95829.56;4985358;28;20195;-70
2023/05/16 05:03:24;;;;;;;38.17;15.10;;;;;;;11.37;72.07;95827.75;4988638;28;20212;-71
2023/05/16 05:05:49;;;;;;;28.60;14.73;;;;;;;11.20;72.56;95829.56;4984380;28;20188;-72
2023/05/16 05:08:15;;;;;;;28.50;16.07;;;;;;;11.27;72.45;95826.56;4986817;28;20185;-69
2023/05/16 05:10:41;;;;;;;16.97;14.97;;;;;;;11.31;72.47;95822.84;4985512;28;20196;-70
2023/05/16 05:13:06;;;;;;;26.53;14.77;;;;;;;11.14;73.41;95835.13;5000397;28;20204;-70
2023/05/16 05:15:32;;;;;;;21.67;11.93;;;;;;;10.72;75.25;95836.53;5006333;28;20180;-71
2023/05/16 05:17:57;;;;;;;17.50;11.73;;;;;;;10.91;74.90;95830.28;4999982;28;20837;-68
2023/05/16 05:20:23;;;;;;;16.40;11.67;;;;;;;10.96;75.02;95833.50;4996317;28;20173;-70
2023/05/16 05:22:48;;;;;;;15.93;12.87;;;;;;;11.30;73.29;95834.28;4988849;28;20752;-69
2023/05/16 05:25:14;;;;;;;29.80;13.63;;;;;;;11.42;72.99;95837.06;4988263;28;20180;-68
2023/05/16 05:27:39;;;;;;;15.90;13.37;;;;;;;11.62;72.57;95838.59;4982099;28;20189;-69
2023/05/16 05:30:05;;;;;;;22.70;14.33;;;;;;;11.70;72.30;95837.31;4985206;28;20179;-69
2023/05/16 05:32:31;;;;;;;17.67;14.97;;;;;;;11.43;72.88;95837.91;4988198;28;20207;-71
2023/05/16 05:34:57;;;;;;;18.03;13.00;;;;;;;11.43;72.85;95841.41;4987743;28;20424;-71
2023/05/16 05:37:22;;;;;;;17.70;14.13;;;;;;;11.60;72.17;95837.81;4986687;28;20180;-71
2023/05/16 05:39:48;;;;;;;15.93;12.90;;;;;;;11.71;71.87;95831.09;4988456;28;20947;-70
2023/05/16 05:42:13;;;;;;;15.57;9.63;;;;;;;12.41;82.36;95832.25;4989258;28;20180;-68
2023/05/16 05:44:39;;;;;;;13.27;8.33;;;;;;;13.76;78.32;95817.66;4989471;28;20288;-71
2023/05/16 05:47:06;;;;;;;19.83;13.27;;;;;;;13.56;66.92;95811.06;4989363;28;20632;-70
2023/05/16 05:49:32;;;;;;;20.13;14.80;;;;;;;12.81;69.16;95829.81;4986302;28;20781;-69
2023/05/16 05:51:57;;;;;;;24.70;17.00;;;;;;;12.66;69.80;95826.34;4988112;28;20438;-69
2023/05/16 05:54:24;;;;;;;20.73;15.70;;;;;;;12.61;70.39;95824.91;4986963;28;20588;-68
2023/05/16 05:56:50;;;;;;;19.67;17.57;;;;;;;12.83;69.68;95827.09;4988058;28;20200;-70
2023/05/16 05:59:15;;;;;;;24.20;17.90;;;;;;;12.68;70.49;95828.88;4987510;28;20927;-69
2023/05/16 06:01:42;;;;;;;23.83;18.10;;;;;;;12.74;69.92;95828.50;4981341;28;20192;-70
2023/05/16 06:04:08;;;;;;;21.83;18.47;;;;;;;12.74;71.02;95827.66;4988160;28;20517;-70
2023/05/16 06:06:33;;;;;;;21.97;19.20;;;;;;;12.74;70.90;95823.22;4988390;28;20423;-71
2023/05/16 06:08:59;;;;;;;23.60;18.90;;;;;;;13.05;70.13;95831.84;4986900;28;20184;-68
2023/05/16 06:11:24;;;;;;;24.63;19.37;;;;;;;13.12;69.37;95836.63;4988837;28;20177;-70
2023/05/16 06:13:51;;;;;;;25.13;20.23;;;;;;;13.41;68.08;95826.06;4987319;28;20215;-71
2023/05/16 06:16:16;;;;;;;23.10;18.40;;;;;;;13.52;67.70;95830.66;4990959;28;20267;-71
2023/05/16 06:18:42;;;;;;;26.50;18.73;;;;;;;13.67;67.42;95827.00;4991576;28;21042;-68
2023/05/16 06:21:07;;;;;;;25.47;19.90;;;;;;;13.88;66.46;95830.03;4992058;28;20235;-70
2023/05/16 06:23:33;;;;;;;21.37;18.67;;;;;;;13.68;67.65;95825.22;4991862;28;20617;-71
2023/05/16 06:25:59;;;;;;;32.00;18.90;;;;;;;13.74;67.20;95828.28;4990167;28;20211;-71
2023/05/16 06:28:24;;;;;;;24.17;17.67;;;;;;;13.78;67.76;95821.03;4992081;28;20822;-71
2023/05/16 06:30:50;;;;;;;26.10;20.63;;;;;;;13.97;66.96;95824.13;4991866;28;20172;-69
2023/05/16 06:33:17;;;;;;;21.67;18.40;;;;;;;14.09;66.17;95824.28;4992489;28;20204;-70
2023/05/16 06:35:42;;;;;;;31.53;20.80;;;;;;;14.10;65.91;95821.53;4993134;28;20415;-72
2023/05/16 06:38:08;;;;;;;23.20;19.83;;;;;;;14.06;66.58;95820.06;5007080;28;20472;-68
2023/05/16 06:40:33;;;;;;;24.50;19.70;;;;;;;14.00;66.22;95823.09;4999896;28;20180;-70
2023/05/16 06:42:59;;;;;;;23.50;18.00;;;;;;;14.20;66.58;95821.75;4993512;28;20197;-68
2023/05/16 06:45:24;;;;;;;21.43;18.40;;;;;;;14.42;65.34;95807.94;4992765;28;20180;-70
2023/05/16 06:47:50;;;;;;;22.67;18.60;;;;;;;14.72;64.42;95817.38;4993426;28;20223;-68
2023/05/16 06:50:15;;;;;;;19.50;16.50;;;;;;;14.56;63.02;95807.03;4993592;28;20538;-69
2023/05/16 06:52:41;;;;;;;31.30;18.83;;;;;;;14.74;63.25;95815.44;4993574;28;20981;-70
2023/05/16 06:55:07;;;;;;;20.77;18.50;;;;;;;14.39;63.95;95819.56;4993750;28;20177;-70
2023/05/16 06:57:33;;;;;;;20.50;17.67;;;;;;;14.34;64.74;95821.66;4993404;28;20412;-69
2023/05/16 06:59:58;;;;;;;22.27;19.43;;;;;;;14.14;65.13;95828.28;4993863;28;20184;-68
2023/05/16 07:02:24;;;;;;;21.50;18.50;;;;;;;14.11;65.10;95825.84;4994515;28;20196;-67
2023/05/16 07:04:49;;;;;;;21.00;18.90;;;;;;;14.21;64.98;95827.88;4977358;28;20317;-68
2023/05/16 07:07:15;;;;;;;20.47;18.43;;;;;;;14.28;65.12;95827.34;4995163;28;20868;-68
2023/05/16 07:09:40;;;;;;;23.33;17.87;;;;;;;14.38;64.53;95827.56;4995214;28;20180;-67
2023/05/16 07:12:06;;;;;;;22.43;18.90;;;;;;;14.32;64.25;95828.00;4993586;28;20192;-69
2023/05/16 07:14:31;;;;;;;22.73;16.90;;;;;;;14.51;64.47;95825.78;4991519;28;20211;-70
2023/05/16 07:16:57;;;;;;;24.83;19.67;;;;;;;15.04;63.09;95815.09;4990512;28;20626;-70
2023/05/16 07:19:22;;;;;;;19.30;17.00;;;;;;;15.38;61.89;95810.88;4990950;28;20193;-69
2023/05/16 07:21:48;;;;;;;26.63;18.40;;;;;;;15.70;60.97;95820.06;4990778;28;20168;-69
2023/05/16 07:24:13;;;;;;;22.53;16.70;;;;;;;15.72;60.29;95821.66;4989949;28;20199;-68
2023/05/16 07:26:39;;;;;;;20.13;17.20;;;;;;;16.00;59.91;95827.56;4990658;28;20642;-69
2023/05/16 07:29:04;;;;;;;26.67;18.47;;;;;;;16.27;58.60;95819.34;4990872;28;20177;-69
2023/05/16 07:31:30;;;;;;;20.43;16.67;;;;;;;15.99;60.06;95823.22;4991249;28;20169;-69
2023/05/16 07:33:55;;;;;;;23.53;18.70;;;;;;;16.22;59.55;95827.63;4991292;28;20896;-69
2023/05/16 07:36:21;;;;;;;19.20;17.23;;;;;;;16.23;59.22;95828.50;4990983;28;20167;-69
2023/05/16 07:38:47;;;;;;;19.30;17.37;;;;;;;16.13;58.18;95827.47;4991308;28;20666;-68
2023/05/16 07:41:12;;;;;;;21.33;18.50;;;;;;;16.20;58.30;95828.72;4992033;28;20185;-70
2023/05/16 07:43:38;;;;;;;28.97;19.60;;;;;;;16.60;57.45;95831.81;4992932;28;20199;-68
2023/05/16 07:46:04;;;;;;;22.00;17.50;;;;;;;16.27;58.12;95836.06;4991586;28;20177;-70
2023/05/16 07:48:29;;;;;;;20.37;17.63;;;;;;;16.49;57.96;95839.75;4974565;28;20174;-70
2023/05/16 07:50:55;;;;;;;21.73;19.43;;;;;;;16.39;58.06;95838.75;4972824;28;20442;-69
2023/05/16 07:53:21;;;;;;;23.73;18.47;;;;;;;16.27;58.13;95846.66;4975082;28;20441;-70
2023/05/16 07:55:47;;;;;;;21.40;19.30;;;;;;;16.04;58.69;95839.63;4987565;28;20177;-69
2023/05/16 07:58:13;;;;;;;22.20;17.80;;;;;;;15.83;60.22;95842.91;4988507;28;20261;-70
2023/05/16 08:00:39;;;;;;;26.40;18.50;;;;;;;15.77;59.98;95835.41;4986835;28;20409;-69
2023/05/16 08:03:05;;;;;;;21.13;18.93;;;;;;;15.80;59.52;95836.97;4986267;28;20196;-68
2023/05/16 08:05:31;;;;;;;21.07;19.10;;;;;;;15.76;59.64;95830.25;4981060;28;20166;-70
2023/05/16 08:07:56;;;;;;;26.97;19.53;;;;;;;15.59;60.45;95834.94;4977591;28;20415;-70
2023/05/16 08:10:24;;;;;;;19.47;17.40;;;;;;;15.46;60.42;95834.13;4980454;28;20268;-69
2023/05/16 08:12:51;;;;;;;21.00;18.90;;;;;;;15.18;61.74;95843.19;4975613;28;20201;-69
2023/05/16 08:15:17;;;;;;;21.03;18.93;;;;;;;15.25;61.69;95834.69;4970045;28;20417;-71
2023/05/16 08:17:42;;;;;;;21.10;18.90;;;;;;;15.24;61.68;95840.13;4969428;28;20788;-70
2023/05/16 08:20:08;;;;;;;22.37;19.10;;;;;;;15.18;61.13;95835.25;4970000;28;20193;-69
2023/05/16 08:22:33;;;;;;;22.23;17.27;;;;;;;15.21;61.88;95841.19;4970164;28;20198;-68
2023/05/16 08:24:59;;;;;;;19.47;17.50;;;;;;;15.22;61.55;95836.72;4969785;28;20176;-70
2023/05/16 08:27:26;;;;;;;19.97;17.83;;;;;;;15.32;60.91;95843.03;4969437;28;20177;-70
2023/05/16 08:29:52;;;;;;;18.83;16.80;;;;;;;15.17;61.01;95849.44;4969951;28;20170;-70
2023/05/16 08:32:17;;;;;;;19.53;17.43;;;;;;;15.07;60.97;95843.97;4969597;28;20436;-69
2023/05/16 08:34:42;;;;;;;23.43;17.70;;;;;;;15.03;61.28;95853.06;4969436;28;20272;-70
2023/05/16 08:37:09;;;;;;;19.97;18.03;;;;;;;15.16;61.01;95845.94;4969430;28;20180;-70
2023/05/16 08:39:34;;;;;;;21.73;18.73;;;;;;;15.14;61.25;95849.63;4969542;28;20268;-70
2023/05/16 08:42:00;;;;;;;20.87;18.67;;;;;;;15.15;60.66;95846.91;4969593;28;20429;-70
2023/05/16 08:44:27;;;;;;;19.00;17.10;;;;;;;14.89;60.61;95858.47;4971002;28;20173;-69
2023/05/16 08:46:53;;;;;;;18.67;16.07;;;;;;;14.88;61.29;95862.03;4978045;28;20498;-70
2023/05/16 08:49:20;;;;;;;18.80;16.90;;;;;;;14.92;60.66;95868.81;4988798;28;20439;-70
2023/05/16 08:51:47;;;;;;;17.60;15.80;;;;;;;14.56;60.48;95873.88;4988811;28;20907;-71
2023/05/16 08:54:14;;;;;;;19.83;17.80;;;;;;;14.33;61.59;95866.63;4988487;28;20440;-70
2023/05/16 08:56:44;;;;;;;24.00;17.00;;;;;;;14.29;61.13;95866.00;4988080;28;20416;-69
2023/05/16 08:59:13;;;;;;;20.93;16.43;;;;;;;14.50;61.17;95863.69;4988184;28;20459;-70
2023/05/16 09:01:40;;;;;;;22.60;17.10;;;;;;;14.52;60.94;95875.00;4988289;28;20435;-70
2023/05/16 09:04:07;;;;;;;22.83;16.20;;;;;;;14.68;61.05;95871.34;4988656;28;20611;-72
2023/05/16 09:06:32;;;;;;;18.97;17.00;;;;;;;14.45;61.21;95878.16;4989387;28;20404;-70
2023/05/16 09:08:58;;;;;;;18.33;16.50;;;;;;;14.02;61.67;95884.50;4989052;28;20892;-70
2023/05/16 09:11:23;;;;;;;18.30;16.50;;;;;;;13.96;63.04;95874.34;4988770;28;20188;-69
2023/05/16 09:13:49;;;;;;;19.10;16.27;;;;;;;13.99;62.57;95879.44;4990841;28;20193;-70
2023/05/16 09:16:20;;;;;;;18.20;16.47;;;;;;;14.02;62.93;95876.59;4991365;28;20168;-69
2023/05/16 09:18:54;;;;;;;19.07;16.70;;;;;;;14.24;62.14;95877.81;4990668;28;20455;-69
2023/05/16 09:21:19;;;;;;;18.10;16.20;;;;;;;14.08;62.60;95876.19;4993664;28;20408;-70
2023/05/16 09:23:48;;;;;;;20.47;17.33;;;;;;;14.21;62.75;95878.03;4990718;28;20435;-70
2023/05/16 09:26:14;;;;;;;18.63;16.50;;;;;;;14.36;62.09;95875.22;4990849;28;20173;-69
2023/05/16 09:28:39;;;;;;;28.33;18.03;;;;;;;14.52;61.84;95880.28;4991445;28;20415;-68
2023/05/16 09:31:35;;;;;;;23.53;17.57;;;;;;;14.73;61.20;95883.28;4991172;28;20234;-70
2023/05/16 09:34:01;;;;;;;18.37;16.47;;;;;;;14.78;61.15;95883.81;4990978;28;20218;-70
2023/05/16 09:36:26;;;;;;;17.80;16.00;;;;;;;14.65;61.43;95882.97;4991039;28;20893;-69
2023/05/16 09:38:52;;;;;;;20.43;17.97;;;;;;;14.71;61.54;95877.25;4990937;28;20236;-69
2023/05/16 09:41:17;;;;;;;19.30;17.13;;;;;;;14.74;61.00;95885.00;4990766;28;20276;-72
2023/05/16 09:43:43;;;;;;;19.07;17.27;;;;;;;14.78;61.21;95875.88;4988657;28;20185;-68
2023/05/16 09:46:14;;;;;;;23.80;18.50;;;;;;;14.86;61.22;95883.28;4991110;28;20252;-70
2023/05/16 09:48:46;;;;;;;18.27;16.30;;;;;;;14.80;61.34;95878.44;4992929;28;20420;-72
2023/05/16 09:51:13;;;;;;;22.23;18.90;;;;;;;14.77;61.86;95868.09;4994770;28;20435;-69
2023/05/16 09:53:40;;;;;;;23.10;17.87;;;;;;;14.79;61.21;95872.31;4994585;28;20423;-70
2023/05/16 09:56:10;;;;;;;19.70;17.70;;;;;;;14.71;62.06;95874.63;4995418;28;20580;-70
2023/05/16 09:58:39;;;;;;;20.57;17.93;;;;;;;14.75;62.04;95867.34;4994423;28;20520;-69
2023/05/16 10:01:06;;;;;;;21.73;18.90;;;;;;;14.86;61.75;95861.28;4994306;28;20408;-70
2023/05/16 10:03:35;;;;;;;20.47;17.83;;;;;;;14.73;61.46;95867.44;4994291;28;20427;-70
2023/05/16 10:06:01;;;;;;;20.33;16.97;;;;;;;14.78;61.96;95861.84;4994076;28;20917;-70
2023/05/16 10:08:29;;;;;;;19.53;17.67;;;;;;;14.75;61.57;95869.97;4994410;28;20422;-70
2023/05/16 10:10:55;;;;;;;20.43;16.47;;;;;;;14.86;61.35;95867.44;4994066;28;20404;-68
2023/05/16 10:13:25;;;;;;;25.67;17.77;;;;;;;14.74;61.58;95865.63;4993983;28;20463;-69
2023/05/16 10:15:55;;;;;;;19.43;17.33;;;;;;;14.71;61.49;95879.06;4993908;28;20400;-70
2023/05/16 10:18:23;;;;;;;28.20;19.20;;;;;;;14.70;62.32;95872.09;4993607;28;20454;-70
2023/05/16 10:20:52;;;;;;;20.33;18.30;;;;;;;14.64;62.63;95875.97;4993977;28;20404;-71
2023/05/16 10:23:20;;;;;;;22.87;17.80;;;;;;;14.67;63.16;95880.22;4993856;28;21140;-69
2023/05/16 10:25:47;;;;;;;21.20;19.20;;;;;;;14.60;63.41;95870.09;4993803;28;20439;-69
2023/05/16 10:28:15;;;;;;;22.53;18.67;;;;;;;14.29;65.91;95873.94;4993600;28;20491;-70
2023/05/16 10:30:43;;;;;;;23.90;17.57;;;;;;;14.49;65.90;95877.84;4993494;28;20499;-70
2023/05/16 10:33:11;;;;;;;21.27;17.80;;;;;;;14.45;64.66;95873.72;4993536;28;20524;-68
2023/05/16 10:35:37;;;;;;;30.67;19.10;;;;;;;14.43;65.01;95883.53;4994120;28;20419;-69
2023/05/16 10:38:04;;;;;;;23.77;20.27;;;;;;;14.55;65.96;95882.75;4993581;28;21185;-68
2023/05/16 10:40:30;;;;;;;21.23;17.20;;;;;;;14.71;65.05;95863.22;4993658;28;20435;-70
2023/05/16 10:43:02;;;;;;;23.97;18.33;;;;;;;14.63;64.79;95871.66;4993184;28;20463;-69
2023/05/16 10:45:28;;;;;;;19.20;17.13;;;;;;;14.72;64.60;95863.13;4993533;28;20400;-69
2023/05/16 10:48:05;;;;;;;22.70;16.57;;;;;;;14.84;63.92;95864.06;4993806;28;20416;-70
2023/05/16 10:50:44;;;;;;;20.40;17.10;;;;;;;14.89;64.08;95866.38;4993330;28;20412;-70
2023/05/16 10:53:22;;;;;;;21.23;16.77;;;;;;;14.95;63.20;95858.88;4993741;28;20436;-69
2023/05/16 10:56:06;;;;;;;18.30;15.83;;;;;;;14.97;62.10;95864.88;4993314;28;20511;-71
2023/05/16 10:58:37;;;;;;;19.60;16.50;;;;;;;14.99;61.94;95860.34;4993233;28;20554;-69
2023/05/16 11:01:26;;;;;;;18.97;15.50;;;;;;;15.13;60.90;95879.66;4993301;28;20434;-69
2023/05/16 11:06:24;;;;;;;21.07;16.23;;;;;;;15.03;61.10;95880.31;4992802;28;20456;-69
2023/05/16 11:09:09;;;;;;;18.70;15.00;;;;;;;15.04;61.07;95878.50;4992550;28;20458;-70
2023/05/16 11:11:37;;;;;;;16.83;14.90;;;;;;;15.08;60.89;95877.34;4992377;28;20396;-72
2023/05/16 11:14:02;;;;;;;17.40;14.90;;;;;;;15.08;61.57;95890.56;4992431;28;20432;-69
2023/05/16 11:16:28;;;;;;;16.60;14.73;;;;;;;15.07;60.45;95890.66;4992847;28;20479;-69
2023/05/16 11:18:54;;;;;;;16.33;14.60;;;;;;;15.07;60.10;95880.09;5007398;28;20204;-70
2023/05/16 11:21:20;;;;;;;19.53;14.10;;;;;;;15.16;59.24;95890.84;5012258;28;20423;-69
2023/05/16 11:24:24;;;;;;;16.70;14.90;;;;;;;15.11;59.82;95897.44;5011735;28;20502;-68